sensor_id;sensor_type;location;lat;lon;timestamp;P1;durP1;ratioP1;P2;durP2;ratioP2
84899;SDS011;75163;42.130;21.718;2024-01-30T00:02:12;34.13;;;19.00;;
84899;SDS011;75163;42.130;21.718;2024-01-30T00:04:38;43.28;;;25.02;;
84899;SDS011;75163;42.130;21.718;2024-01-30T00:07:04;41.78;;;25.08;;
84899;SDS011;75163;42.130;21.718;2024-01-30T00:09:30;39.90;;;22.77;;
84899;SDS011;75163;42.130;21.718;2024-01-30T00:11:56;42.53;;;23.88;;
84899;SDS011;75163;42.130;21.718;2024-01-30T00:14:22;33.13;;;18.50;;
84899;SDS011;75163;42.130;21.718;2024-01-30T00:16:48;36.17;;;20.33;;
84899;SDS011;75163;42.130;21.718;2024-01-30T00:19:14;36.58;;;20.52;;
84899;SDS011;75163;42.130;21.718;2024-01-30T00:21:41;32.20;;;20.65;;
84899;SDS011;75163;42.130;21.718;2024-01-30T00:24:07;34.92;;;21.38;;
84899;SDS011;75163;42.130;21.718;2024-01-30T00:26:33;35.28;;;20.60;;
84899;SDS011;75163;42.130;21.718;2024-01-30T00:28:59;32.45;;;20.33;;
84899;SDS011;75163;42.130;21.718;2024-01-30T00:31:25;33.85;;;19.10;;
84899;SDS011;75163;42.130;21.718;2024-01-30T00:33:51;33.10;;;18.48;;
84899;SDS011;75163;42.130;21.718;2024-01-30T00:36:17;36.03;;;20.65;;
84899;SDS011;75163;42.130;21.718;2024-01-30T00:38:43;34.33;;;17.90;;
84899;SDS011;75163;42.130;21.718;2024-01-30T00:41:09;36.95;;;19.73;;
84899;SDS011;75163;42.130;21.718;2024-01-30T00:43:36;31.65;;;18.67;;
84899;SDS011;75163;42.130;21.718;2024-01-30T00:46:02;28.48;;;17.35;;
84899;SDS011;75163;42.130;21.718;2024-01-30T00:48:28;25.52;;;17.30;;
84899;SDS011;75163;42.130;21.718;2024-01-30T00:50:54;28.73;;;16.33;;
84899;SDS011;75163;42.130;21.718;2024-01-30T00:53:20;27.85;;;15.60;;
84899;SDS011;75163;42.130;21.718;2024-01-30T00:55:46;28.75;;;16.75;;
84899;SDS011;75163;42.130;21.718;2024-01-30T00:58:13;22.40;;;15.15;;
84899;SDS011;75163;42.130;21.718;2024-01-30T01:00:39;25.48;;;15.88;;
84899;SDS011;75163;42.130;21.718;2024-01-30T01:03:05;33.60;;;18.00;;
84899;SDS011;75163;42.130;21.718;2024-01-30T01:05:31;35.13;;;19.50;;
84899;SDS011;75163;42.130;21.718;2024-01-30T01:07:57;29.55;;;18.45;;
84899;SDS011;75163;42.130;21.718;2024-01-30T01:10:23;33.78;;;19.40;;
84899;SDS011;75163;42.130;21.718;2024-01-30T01:12:49;36.00;;;20.95;;
84899;SDS011;75163;42.130;21.718;2024-01-30T01:15:15;31.58;;;17.90;;
84899;SDS011;75163;42.130;21.718;2024-01-30T01:17:41;32.42;;;18.13;;
84899;SDS011;75163;42.130;21.718;2024-01-30T01:20:07;40.80;;;17.92;;
84899;SDS011;75163;42.130;21.718;2024-01-30T01:22:35;32.15;;;18.20;;
84899;SDS011;75163;42.130;21.718;2024-01-30T01:25:03;28.65;;;18.75;;
84899;SDS011;75163;42.130;21.718;2024-01-30T01:27:32;37.50;;;19.70;;
84899;SDS011;75163;42.130;21.718;2024-01-30T01:29:59;34.40;;;18.88;;
84899;SDS011;75163;42.130;21.718;2024-01-30T01:32:25;31.52;;;19.67;;
84899;SDS011;75163;42.130;21.718;2024-01-30T01:34:51;32.38;;;19.13;;
84899;SDS011;75163;42.130;21.718;2024-01-30T01:37:17;32.00;;;18.52;;
84899;SDS011;75163;42.130;21.718;2024-01-30T01:39:43;29.70;;;18.83;;
84899;SDS011;75163;42.130;21.718;2024-01-30T01:42:09;34.35;;;18.27;;
84899;SDS011;75163;42.130;21.718;2024-01-30T01:44:35;35.55;;;20.92;;
84899;SDS011;75163;42.130;21.718;2024-01-30T01:47:02;33.67;;;17.30;;
84899;SDS011;75163;42.130;21.718;2024-01-30T01:49:28;29.80;;;16.67;;
84899;SDS011;75163;42.130;21.718;2024-01-30T01:51:55;28.73;;;16.58;;
84899;SDS011;75163;42.130;21.718;2024-01-30T01:54:25;31.13;;;17.58;;
84899;SDS011;75163;42.130;21.718;2024-01-30T01:56:51;29.40;;;18.00;;
84899;SDS011;75163;42.130;21.718;2024-01-30T01:59:18;23.63;;;15.73;;
84899;SDS011;75163;42.130;21.718;2024-01-30T02:01:45;30.45;;;17.80;;
84899;SDS011;75163;42.130;21.718;2024-01-30T02:04:14;26.75;;;15.80;;
84899;SDS011;75163;42.130;21.718;2024-01-30T02:06:40;32.33;;;17.95;;
84899;SDS011;75163;42.130;21.718;2024-01-30T02:09:06;35.63;;;20.40;;
84899;SDS011;75163;42.130;21.718;2024-01-30T02:11:34;75.95;;;41.53;;
84899;SDS011;75163;42.130;21.718;2024-01-30T02:14:04;40.78;;;22.83;;
84899;SDS011;75163;42.130;21.718;2024-01-30T02:16:30;41.08;;;21.35;;
84899;SDS011;75163;42.130;21.718;2024-01-30T02:18:56;40.13;;;24.55;;
84899;SDS011;75163;42.130;21.718;2024-01-30T02:21:22;39.38;;;21.95;;
84899;SDS011;75163;42.130;21.718;2024-01-30T02:23:49;48.13;;;24.63;;
84899;SDS011;75163;42.130;21.718;2024-01-30T02:26:16;64.75;;;32.03;;
84899;SDS011;75163;42.130;21.718;2024-01-30T02:28:42;62.88;;;33.42;;
84899;SDS011;75163;42.130;21.718;2024-01-30T02:31:08;36.42;;;21.65;;
84899;SDS011;75163;42.130;21.718;2024-01-30T02:33:34;28.45;;;14.40;;
84899;SDS011;75163;42.130;21.718;2024-01-30T02:36:00;23.10;;;14.23;;
84899;SDS011;75163;42.130;21.718;2024-01-30T02:38:26;30.50;;;16.25;;
84899;SDS011;75163;42.130;21.718;2024-01-30T02:40:53;28.40;;;17.27;;
84899;SDS011;75163;42.130;21.718;2024-01-30T02:43:20;22.67;;;14.60;;
84899;SDS011;75163;42.130;21.718;2024-01-30T02:45:46;20.60;;;12.98;;
84899;SDS011;75163;42.130;21.718;2024-01-30T02:48:12;18.88;;;12.38;;
84899;SDS011;75163;42.130;21.718;2024-01-30T02:50:38;19.90;;;12.45;;
84899;SDS011;75163;42.130;21.718;2024-01-30T02:53:04;19.67;;;11.90;;
84899;SDS011;75163;42.130;21.718;2024-01-30T02:55:30;20.77;;;13.15;;
84899;SDS011;75163;42.130;21.718;2024-01-30T02:57:57;20.73;;;12.50;;
84899;SDS011;75163;42.130;21.718;2024-01-30T03:00:23;25.02;;;12.43;;
84899;SDS011;75163;42.130;21.718;2024-01-30T03:02:49;22.85;;;13.30;;
84899;SDS011;75163;42.130;21.718;2024-01-30T03:05:15;21.08;;;12.93;;
84899;SDS011;75163;42.130;21.718;2024-01-30T03:07:41;24.17;;;14.23;;
84899;SDS011;75163;42.130;21.718;2024-01-30T03:10:07;21.20;;;13.48;;
84899;SDS011;75163;42.130;21.718;2024-01-30T03:12:34;24.20;;;13.90;;
84899;SDS011;75163;42.130;21.718;2024-01-30T03:15:00;24.33;;;14.35;;
84899;SDS011;75163;42.130;21.718;2024-01-30T03:17:26;23.52;;;14.07;;
84899;SDS011;75163;42.130;21.718;2024-01-30T03:19:52;21.98;;;13.25;;
84899;SDS011;75163;42.130;21.718;2024-01-30T03:22:18;23.77;;;14.32;;
84899;SDS011;75163;42.130;21.718;2024-01-30T03:24:44;31.10;;;14.43;;
84899;SDS011;75163;42.130;21.718;2024-01-30T03:27:10;22.67;;;14.82;;
84899;SDS011;75163;42.130;21.718;2024-01-30T03:29:36;28.67;;;14.20;;
84899;SDS011;75163;42.130;21.718;2024-01-30T03:32:02;28.27;;;15.82;;
84899;SDS011;75163;42.130;21.718;2024-01-30T03:34:29;21.85;;;12.93;;
84899;SDS011;75163;42.130;21.718;2024-01-30T03:36:55;23.33;;;13.00;;
84899;SDS011;75163;42.130;21.718;2024-01-30T03:39:21;22.05;;;13.18;;
84899;SDS011;75163;42.130;21.718;2024-01-30T03:41:47;18.90;;;11.38;;
84899;SDS011;75163;42.130;21.718;2024-01-30T03:44:13;18.75;;;12.82;;
84899;SDS011;75163;42.130;21.718;2024-01-30T03:46:39;23.10;;;13.07;;
84899;SDS011;75163;42.130;21.718;2024-01-30T03:49:05;19.67;;;12.43;;
84899;SDS011;75163;42.130;21.718;2024-01-30T03:51:31;17.25;;;10.82;;
84899;SDS011;75163;42.130;21.718;2024-01-30T03:53:57;18.98;;;12.15;;
84899;SDS011;75163;42.130;21.718;2024-01-30T03:56:24;19.38;;;11.65;;
84899;SDS011;75163;42.130;21.718;2024-01-30T03:58:50;19.65;;;10.88;;
84899;SDS011;75163;42.130;21.718;2024-01-30T04:01:17;16.65;;;10.55;;
84899;SDS011;75163;42.130;21.718;2024-01-30T04:03:43;20.63;;;12.85;;
84899;SDS011;75163;42.130;21.718;2024-01-30T04:06:10;17.92;;;13.02;;
84899;SDS011;75163;42.130;21.718;2024-01-30T04:08:36;27.27;;;16.55;;
84899;SDS011;75163;42.130;21.718;2024-01-30T04:11:03;22.00;;;13.35;;
84899;SDS011;75163;42.130;21.718;2024-01-30T04:13:31;26.98;;;13.32;;
84899;SDS011;75163;42.130;21.718;2024-01-30T04:15:58;26.00;;;13.35;;
84899;SDS011;75163;42.130;21.718;2024-01-30T04:18:25;23.58;;;12.45;;
84899;SDS011;75163;42.130;21.718;2024-01-30T04:20:51;23.27;;;14.25;;
84899;SDS011;75163;42.130;21.718;2024-01-30T04:23:17;27.88;;;15.93;;
84899;SDS011;75163;42.130;21.718;2024-01-30T04:25:43;22.85;;;14.00;;
84899;SDS011;75163;42.130;21.718;2024-01-30T04:28:09;22.52;;;14.10;;
84899;SDS011;75163;42.130;21.718;2024-01-30T04:30:38;22.05;;;13.80;;
84899;SDS011;75163;42.130;21.718;2024-01-30T04:33:04;21.42;;;12.77;;
84899;SDS011;75163;42.130;21.718;2024-01-30T04:35:31;25.73;;;13.52;;
84899;SDS011;75163;42.130;21.718;2024-01-30T04:37:57;23.35;;;12.75;;
84899;SDS011;75163;42.130;21.718;2024-01-30T04:40:23;19.17;;;11.30;;
84899;SDS011;75163;42.130;21.718;2024-01-30T04:42:49;15.90;;;10.52;;
84899;SDS011;75163;42.130;21.718;2024-01-30T04:45:15;20.00;;;10.82;;
84899;SDS011;75163;42.130;21.718;2024-01-30T04:47:41;14.82;;;9.60;;
84899;SDS011;75163;42.130;21.718;2024-01-30T04:50:08;15.75;;;9.88;;
84899;SDS011;75163;42.130;21.718;2024-01-30T04:52:34;17.92;;;10.60;;
84899;SDS011;75163;42.130;21.718;2024-01-30T04:55:01;12.38;;;8.73;;
84899;SDS011;75163;42.130;21.718;2024-01-30T04:57:27;13.75;;;8.68;;
84899;SDS011;75163;42.130;21.718;2024-01-30T04:59:53;16.27;;;8.75;;
84899;SDS011;75163;42.130;21.718;2024-01-30T05:02:19;13.18;;;8.10;;
84899;SDS011;75163;42.130;21.718;2024-01-30T05:04:45;16.63;;;9.25;;
84899;SDS011;75163;42.130;21.718;2024-01-30T05:07:11;16.63;;;11.15;;
84899;SDS011;75163;42.130;21.718;2024-01-30T05:09:37;17.50;;;10.10;;
84899;SDS011;75163;42.130;21.718;2024-01-30T05:12:03;19.40;;;10.73;;
84899;SDS011;75163;42.130;21.718;2024-01-30T05:14:29;22.80;;;11.75;;
84899;SDS011;75163;42.130;21.718;2024-01-30T05:16:55;23.50;;;11.57;;
84899;SDS011;75163;42.130;21.718;2024-01-30T05:19:21;21.70;;;12.63;;
84899;SDS011;75163;42.130;21.718;2024-01-30T05:21:48;20.33;;;9.80;;
84899;SDS011;75163;42.130;21.718;2024-01-30T05:24:14;18.50;;;10.77;;
84899;SDS011;75163;42.130;21.718;2024-01-30T05:26:40;20.85;;;10.70;;
84899;SDS011;75163;42.130;21.718;2024-01-30T05:29:06;17.85;;;10.93;;
84899;SDS011;75163;42.130;21.718;2024-01-30T05:31:33;11.50;;;7.93;;
84899;SDS011;75163;42.130;21.718;2024-01-30T05:33:59;20.17;;;10.82;;
84899;SDS011;75163;42.130;21.718;2024-01-30T05:36:25;20.65;;;10.85;;
84899;SDS011;75163;42.130;21.718;2024-01-30T05:38:52;20.73;;;11.52;;
84899;SDS011;75163;42.130;21.718;2024-01-30T05:41:18;18.30;;;9.32;;
84899;SDS011;75163;42.130;21.718;2024-01-30T05:43:44;33.78;;;16.33;;
84899;SDS011;75163;42.130;21.718;2024-01-30T05:46:10;35.28;;;19.15;;
84899;SDS011;75163;42.130;21.718;2024-01-30T05:48:36;26.52;;;14.70;;
84899;SDS011;75163;42.130;21.718;2024-01-30T05:51:02;19.45;;;13.13;;
84899;SDS011;75163;42.130;21.718;2024-01-30T05:53:29;50.47;;;21.20;;
84899;SDS011;75163;42.130;21.718;2024-01-30T05:55:55;36.47;;;24.45;;
84899;SDS011;75163;42.130;21.718;2024-01-30T05:58:21;20.25;;;10.85;;
84899;SDS011;75163;42.130;21.718;2024-01-30T06:00:47;40.60;;;22.23;;
84899;SDS011;75163;42.130;21.718;2024-01-30T06:03:13;28.45;;;15.80;;
84899;SDS011;75163;42.130;21.718;2024-01-30T06:05:39;25.33;;;15.35;;
84899;SDS011;75163;42.130;21.718;2024-01-30T06:08:05;21.67;;;14.98;;
84899;SDS011;75163;42.130;21.718;2024-01-30T06:10:31;24.60;;;13.77;;
84899;SDS011;75163;42.130;21.718;2024-01-30T06:12:58;42.85;;;24.83;;
84899;SDS011;75163;42.130;21.718;2024-01-30T06:15:24;39.85;;;20.35;;
84899;SDS011;75163;42.130;21.718;2024-01-30T06:17:51;102.45;;;46.63;;
84899;SDS011;75163;42.130;21.718;2024-01-30T06:20:17;26.48;;;15.40;;
84899;SDS011;75163;42.130;21.718;2024-01-30T06:22:43;19.83;;;11.13;;
84899;SDS011;75163;42.130;21.718;2024-01-30T06:25:09;39.38;;;21.27;;
84899;SDS011;75163;42.130;21.718;2024-01-30T06:27:37;54.35;;;27.25;;
84899;SDS011;75163;42.130;21.718;2024-01-30T06:30:04;38.85;;;22.15;;
84899;SDS011;75163;42.130;21.718;2024-01-30T06:32:31;40.92;;;22.65;;
84899;SDS011;75163;42.130;21.718;2024-01-30T06:35:02;34.22;;;19.35;;
84899;SDS011;75163;42.130;21.718;2024-01-30T06:37:28;16.52;;;9.95;;
84899;SDS011;75163;42.130;21.718;2024-01-30T06:39:55;14.68;;;10.10;;
84899;SDS011;75163;42.130;21.718;2024-01-30T06:42:21;53.92;;;26.13;;
84899;SDS011;75163;42.130;21.718;2024-01-30T06:44:47;27.02;;;15.88;;
84899;SDS011;75163;42.130;21.718;2024-01-30T06:47:13;16.27;;;10.80;;
84899;SDS011;75163;42.130;21.718;2024-01-30T06:49:39;19.52;;;8.35;;
84899;SDS011;75163;42.130;21.718;2024-01-30T06:52:07;13.20;;;8.52;;
84899;SDS011;75163;42.130;21.718;2024-01-30T06:54:33;19.88;;;10.98;;
84899;SDS011;75163;42.130;21.718;2024-01-30T06:57:00;16.30;;;9.93;;
84899;SDS011;75163;42.130;21.718;2024-01-30T06:59:26;16.17;;;8.52;;
84899;SDS011;75163;42.130;21.718;2024-01-30T07:01:52;16.05;;;8.68;;
84899;SDS011;75163;42.130;21.718;2024-01-30T07:04:18;14.18;;;7.90;;
84899;SDS011;75163;42.130;21.718;2024-01-30T07:06:44;16.05;;;8.82;;
84899;SDS011;75163;42.130;21.718;2024-01-30T07:09:12;22.80;;;8.43;;
84899;SDS011;75163;42.130;21.718;2024-01-30T07:11:38;19.27;;;8.57;;
84899;SDS011;75163;42.130;21.718;2024-01-30T07:14:05;24.33;;;11.63;;
84899;SDS011;75163;42.130;21.718;2024-01-30T07:16:31;33.97;;;15.70;;
84899;SDS011;75163;42.130;21.718;2024-01-30T07:18:57;16.83;;;8.82;;
84899;SDS011;75163;42.130;21.718;2024-01-30T07:21:23;18.42;;;9.55;;
84899;SDS011;75163;42.130;21.718;2024-01-30T07:23:53;19.25;;;10.48;;
84899;SDS011;75163;42.130;21.718;2024-01-30T07:26:20;22.13;;;10.32;;
84899;SDS011;75163;42.130;21.718;2024-01-30T07:28:46;15.43;;;8.98;;
84899;SDS011;75163;42.130;21.718;2024-01-30T07:31:12;15.57;;;8.25;;
84899;SDS011;75163;42.130;21.718;2024-01-30T07:33:38;13.63;;;6.32;;
84899;SDS011;75163;42.130;21.718;2024-01-30T07:36:05;10.88;;;6.80;;
84899;SDS011;75163;42.130;21.718;2024-01-30T07:38:34;16.40;;;8.45;;
84899;SDS011;75163;42.130;21.718;2024-01-30T07:41:00;12.82;;;6.32;;
84899;SDS011;75163;42.130;21.718;2024-01-30T07:43:26;10.55;;;5.43;;
84899;SDS011;75163;42.130;21.718;2024-01-30T07:45:52;9.88;;;6.32;;
84899;SDS011;75163;42.130;21.718;2024-01-30T07:48:18;12.07;;;6.68;;
84899;SDS011;75163;42.130;21.718;2024-01-30T07:50:44;18.98;;;10.05;;
84899;SDS011;75163;42.130;21.718;2024-01-30T07:53:10;17.20;;;7.90;;
84899;SDS011;75163;42.130;21.718;2024-01-30T07:55:37;10.43;;;5.32;;
84899;SDS011;75163;42.130;21.718;2024-01-30T07:58:03;22.05;;;7.95;;
84899;SDS011;75163;42.130;21.718;2024-01-30T08:00:30;9.88;;;5.85;;
84899;SDS011;75163;42.130;21.718;2024-01-30T08:02:56;12.73;;;6.82;;
84899;SDS011;75163;42.130;21.718;2024-01-30T08:05:23;10.48;;;7.05;;
84899;SDS011;75163;42.130;21.718;2024-01-30T08:07:49;11.48;;;6.82;;
84899;SDS011;75163;42.130;21.718;2024-01-30T08:10:16;11.77;;;7.32;;
84899;SDS011;75163;42.130;21.718;2024-01-30T08:12:43;15.70;;;9.30;;
84899;SDS011;75163;42.130;21.718;2024-01-30T08:15:10;12.18;;;7.43;;
84899;SDS011;75163;42.130;21.718;2024-01-30T08:17:37;11.63;;;8.35;;
84899;SDS011;75163;42.130;21.718;2024-01-30T08:20:03;13.13;;;6.60;;
84899;SDS011;75163;42.130;21.718;2024-01-30T08:22:30;12.75;;;5.85;;
84899;SDS011;75163;42.130;21.718;2024-01-30T08:24:56;9.82;;;5.72;;
84899;SDS011;75163;42.130;21.718;2024-01-30T08:27:22;7.82;;;5.15;;
84899;SDS011;75163;42.130;21.718;2024-01-30T08:29:48;9.13;;;4.65;;
84899;SDS011;75163;42.130;21.718;2024-01-30T08:32:15;8.52;;;4.82;;
84899;SDS011;75163;42.130;21.718;2024-01-30T08:34:41;8.15;;;4.72;;
84899;SDS011;75163;42.130;21.718;2024-01-30T08:37:07;9.18;;;4.78;;
84899;SDS011;75163;42.130;21.718;2024-01-30T08:39:33;7.93;;;3.92;;
84899;SDS011;75163;42.130;21.718;2024-01-30T08:41:59;9.25;;;5.47;;
84899;SDS011;75163;42.130;21.718;2024-01-30T08:44:25;11.02;;;5.03;;
84899;SDS011;75163;42.130;21.718;2024-01-30T08:46:52;10.10;;;5.53;;
84899;SDS011;75163;42.130;21.718;2024-01-30T08:49:19;16.70;;;9.95;;
84899;SDS011;75163;42.130;21.718;2024-01-30T08:51:45;12.95;;;6.80;;
84899;SDS011;75163;42.130;21.718;2024-01-30T08:54:12;11.90;;;5.15;;
84899;SDS011;75163;42.130;21.718;2024-01-30T08:56:38;9.95;;;4.38;;
84899;SDS011;75163;42.130;21.718;2024-01-30T08:59:04;8.23;;;5.00;;
84899;SDS011;75163;42.130;21.718;2024-01-30T09:01:30;6.85;;;4.63;;
84899;SDS011;75163;42.130;21.718;2024-01-30T09:03:56;6.80;;;4.03;;
84899;SDS011;75163;42.130;21.718;2024-01-30T09:06:22;11.73;;;4.95;;
84899;SDS011;75163;42.130;21.718;2024-01-30T09:08:53;9.30;;;5.10;;
84899;SDS011;75163;42.130;21.718;2024-01-30T09:11:19;9.55;;;4.93;;
84899;SDS011;75163;42.130;21.718;2024-01-30T09:13:45;7.95;;;4.55;;
84899;SDS011;75163;42.130;21.718;2024-01-30T09:16:11;11.50;;;5.18;;
84899;SDS011;75163;42.130;21.718;2024-01-30T09:18:37;5.32;;;3.67;;
84899;SDS011;75163;42.130;21.718;2024-01-30T09:21:04;6.35;;;3.78;;
84899;SDS011;75163;42.130;21.718;2024-01-30T09:23:30;8.38;;;4.25;;
84899;SDS011;75163;42.130;21.718;2024-01-30T09:25:56;6.90;;;4.18;;
84899;SDS011;75163;42.130;21.718;2024-01-30T09:28:22;6.80;;;4.68;;
84899;SDS011;75163;42.130;21.718;2024-01-30T09:30:48;7.00;;;4.43;;
84899;SDS011;75163;42.130;21.718;2024-01-30T09:33:14;12.40;;;6.20;;
84899;SDS011;75163;42.130;21.718;2024-01-30T09:35:41;12.73;;;5.72;;
84899;SDS011;75163;42.130;21.718;2024-01-30T09:38:07;8.95;;;5.55;;
84899;SDS011;75163;42.130;21.718;2024-01-30T09:40:33;7.78;;;5.22;;
84899;SDS011;75163;42.130;21.718;2024-01-30T09:42:59;9.60;;;6.43;;
84899;SDS011;75163;42.130;21.718;2024-01-30T09:45:25;15.80;;;7.35;;
84899;SDS011;75163;42.130;21.718;2024-01-30T09:47:52;7.88;;;5.03;;
84899;SDS011;75163;42.130;21.718;2024-01-30T09:50:18;7.70;;;4.70;;
84899;SDS011;75163;42.130;21.718;2024-01-30T09:52:45;11.00;;;6.03;;
84899;SDS011;75163;42.130;21.718;2024-01-30T09:55:11;8.73;;;5.70;;
84899;SDS011;75163;42.130;21.718;2024-01-30T09:57:38;14.32;;;6.20;;
84899;SDS011;75163;42.130;21.718;2024-01-30T10:00:04;12.50;;;6.10;;
84899;SDS011;75163;42.130;21.718;2024-01-30T10:02:33;10.02;;;6.70;;
84899;SDS011;75163;42.130;21.718;2024-01-30T10:05:00;8.30;;;5.07;;
84899;SDS011;75163;42.130;21.718;2024-01-30T10:07:26;9.05;;;5.13;;
84899;SDS011;75163;42.130;21.718;2024-01-30T10:09:53;8.05;;;5.10;;
84899;SDS011;75163;42.130;21.718;2024-01-30T10:12:21;20.33;;;7.10;;
84899;SDS011;75163;42.130;21.718;2024-01-30T10:14:47;10.13;;;5.13;;
84899;SDS011;75163;42.130;21.718;2024-01-30T10:17:13;8.13;;;5.40;;
84899;SDS011;75163;42.130;21.718;2024-01-30T10:19:40;9.43;;;5.60;;
84899;SDS011;75163;42.130;21.718;2024-01-30T10:22:06;10.10;;;6.68;;
84899;SDS011;75163;42.130;21.718;2024-01-30T10:24:36;11.27;;;6.75;;
84899;SDS011;75163;42.130;21.718;2024-01-30T10:27:02;10.25;;;6.80;;
84899;SDS011;75163;42.130;21.718;2024-01-30T10:29:28;7.93;;;5.03;;
84899;SDS011;75163;42.130;21.718;2024-01-30T10:32:01;8.20;;;5.50;;
84899;SDS011;75163;42.130;21.718;2024-01-30T10:34:27;9.30;;;6.22;;
84899;SDS011;75163;42.130;21.718;2024-01-30T10:36:59;9.82;;;5.97;;
84899;SDS011;75163;42.130;21.718;2024-01-30T10:39:26;10.55;;;6.45;;
84899;SDS011;75163;42.130;21.718;2024-01-30T10:41:56;10.98;;;7.75;;
84899;SDS011;75163;42.130;21.718;2024-01-30T10:44:25;13.88;;;6.28;;
84899;SDS011;75163;42.130;21.718;2024-01-30T10:46:55;9.57;;;6.10;;
84899;SDS011;75163;42.130;21.718;2024-01-30T10:49:22;10.43;;;6.40;;
84899;SDS011;75163;42.130;21.718;2024-01-30T10:51:49;9.48;;;5.90;;
84899;SDS011;75163;42.130;21.718;2024-01-30T10:54:16;25.20;;;13.80;;
84899;SDS011;75163;42.130;21.718;2024-01-30T10:56:43;12.73;;;6.45;;
84899;SDS011;75163;42.130;21.718;2024-01-30T10:59:09;69.70;;;34.72;;
84899;SDS011;75163;42.130;21.718;2024-01-30T11:01:36;14.70;;;7.43;;
84899;SDS011;75163;42.130;21.718;2024-01-30T11:04:02;8.73;;;6.20;;
84899;SDS011;75163;42.130;21.718;2024-01-30T11:06:29;16.52;;;10.27;;
84899;SDS011;75163;42.130;21.718;2024-01-30T11:09:02;11.32;;;5.78;;
84899;SDS011;75163;42.130;21.718;2024-01-30T11:11:29;9.80;;;6.25;;
84899;SDS011;75163;42.130;21.718;2024-01-30T11:13:55;11.20;;;6.57;;
84899;SDS011;75163;42.130;21.718;2024-01-30T11:16:21;11.88;;;5.80;;
84899;SDS011;75163;42.130;21.718;2024-01-30T11:18:50;8.25;;;5.72;;
84899;SDS011;75163;42.130;21.718;2024-01-30T11:21:17;10.82;;;6.00;;
84899;SDS011;75163;42.130;21.718;2024-01-30T11:23:43;11.05;;;6.35;;
84899;SDS011;75163;42.130;21.718;2024-01-30T11:26:12;8.77;;;5.65;;
84899;SDS011;75163;42.130;21.718;2024-01-30T11:28:38;12.73;;;6.43;;
84899;SDS011;75163;42.130;21.718;2024-01-30T11:31:07;8.38;;;5.28;;
84899;SDS011;75163;42.130;21.718;2024-01-30T11:33:33;9.80;;;6.13;;
84899;SDS011;75163;42.130;21.718;2024-01-30T11:36:00;7.78;;;5.60;;
84899;SDS011;75163;42.130;21.718;2024-01-30T11:38:27;9.20;;;5.35;;
84899;SDS011;75163;42.130;21.718;2024-01-30T11:40:56;8.77;;;5.07;;
84899;SDS011;75163;42.130;21.718;2024-01-30T11:43:22;8.52;;;5.28;;
84899;SDS011;75163;42.130;21.718;2024-01-30T11:45:48;8.90;;;4.82;;
84899;SDS011;75163;42.130;21.718;2024-01-30T11:48:15;14.15;;;6.20;;
84899;SDS011;75163;42.130;21.718;2024-01-30T11:50:41;6.88;;;5.22;;
84899;SDS011;75163;42.130;21.718;2024-01-30T11:56:12;9.32;;;5.53;;
84899;SDS011;75163;42.130;21.718;2024-01-30T11:58:38;5.60;;;3.70;;
84899;SDS011;75163;42.130;21.718;2024-01-30T12:01:08;9.20;;;4.25;;
84899;SDS011;75163;42.130;21.718;2024-01-30T12:03:34;6.38;;;3.80;;
84899;SDS011;75163;42.130;21.718;2024-01-30T12:06:00;6.75;;;4.65;;
84899;SDS011;75163;42.130;21.718;2024-01-30T12:08:28;7.15;;;4.80;;
84899;SDS011;75163;42.130;21.718;2024-01-30T12:10:55;11.30;;;5.28;;
84899;SDS011;75163;42.130;21.718;2024-01-30T12:13:22;12.15;;;5.38;;
84899;SDS011;75163;42.130;21.718;2024-01-30T12:15:48;11.88;;;5.60;;
84899;SDS011;75163;42.130;21.718;2024-01-30T12:18:18;10.20;;;5.53;;
84899;SDS011;75163;42.130;21.718;2024-01-30T12:20:45;8.15;;;4.55;;
84899;SDS011;75163;42.130;21.718;2024-01-30T12:23:14;8.85;;;4.28;;
84899;SDS011;75163;42.130;21.718;2024-01-30T12:25:40;10.20;;;5.20;;
84899;SDS011;75163;42.130;21.718;2024-01-30T12:28:06;13.60;;;6.90;;
84899;SDS011;75163;42.130;21.718;2024-01-30T12:30:34;10.43;;;6.00;;
84899;SDS011;75163;42.130;21.718;2024-01-30T12:33:01;8.27;;;5.63;;
84899;SDS011;75163;42.130;21.718;2024-01-30T12:35:29;7.25;;;5.22;;
84899;SDS011;75163;42.130;21.718;2024-01-30T12:37:55;11.05;;;5.70;;
84899;SDS011;75163;42.130;21.718;2024-01-30T12:40:21;7.40;;;3.85;;
84899;SDS011;75163;42.130;21.718;2024-01-30T12:42:49;8.90;;;4.70;;
84899;SDS011;75163;42.130;21.718;2024-01-30T12:45:15;7.75;;;4.43;;
84899;SDS011;75163;42.130;21.718;2024-01-30T12:47:45;8.48;;;5.22;;
84899;SDS011;75163;42.130;21.718;2024-01-30T12:50:28;7.53;;;4.22;;
84899;SDS011;75163;42.130;21.718;2024-01-30T12:52:54;10.50;;;6.00;;
84899;SDS011;75163;42.130;21.718;2024-01-30T12:55:21;15.18;;;6.38;;
84899;SDS011;75163;42.130;21.718;2024-01-30T12:57:47;5.72;;;3.65;;
84899;SDS011;75163;42.130;21.718;2024-01-30T13:00:13;8.70;;;4.93;;
84899;SDS011;75163;42.130;21.718;2024-01-30T13:02:39;12.52;;;6.82;;
84899;SDS011;75163;42.130;21.718;2024-01-30T13:05:07;7.38;;;4.60;;
84899;SDS011;75163;42.130;21.718;2024-01-30T13:07:33;9.45;;;5.65;;
84899;SDS011;75163;42.130;21.718;2024-01-30T13:10:00;7.90;;;5.90;;
84899;SDS011;75163;42.130;21.718;2024-01-30T13:12:28;7.13;;;4.10;;
84899;SDS011;75163;42.130;21.718;2024-01-30T13:14:54;6.78;;;4.57;;
84899;SDS011;75163;42.130;21.718;2024-01-30T13:17:20;12.70;;;5.93;;
84899;SDS011;75163;42.130;21.718;2024-01-30T13:19:47;9.98;;;5.32;;
84899;SDS011;75163;42.130;21.718;2024-01-30T13:22:14;12.18;;;4.80;;
84899;SDS011;75163;42.130;21.718;2024-01-30T13:24:41;9.25;;;4.97;;
84899;SDS011;75163;42.130;21.718;2024-01-30T13:27:07;10.60;;;5.40;;
84899;SDS011;75163;42.130;21.718;2024-01-30T13:29:33;7.40;;;4.78;;
84899;SDS011;75163;42.130;21.718;2024-01-30T13:31:59;7.20;;;4.28;;
84899;SDS011;75163;42.130;21.718;2024-01-30T13:34:26;10.25;;;5.78;;
84899;SDS011;75163;42.130;21.718;2024-01-30T13:36:52;13.73;;;6.43;;
84899;SDS011;75163;42.130;21.718;2024-01-30T13:39:18;13.18;;;6.93;;
84899;SDS011;75163;42.130;21.718;2024-01-30T13:41:44;10.77;;;5.80;;
84899;SDS011;75163;42.130;21.718;2024-01-30T13:44:10;10.73;;;5.80;;
84899;SDS011;75163;42.130;21.718;2024-01-30T13:46:36;11.07;;;5.95;;
84899;SDS011;75163;42.130;21.718;2024-01-30T13:49:04;16.55;;;10.27;;
84899;SDS011;75163;42.130;21.718;2024-01-30T13:51:30;11.93;;;5.95;;
84899;SDS011;75163;42.130;21.718;2024-01-30T13:53:56;8.63;;;4.93;;
84899;SDS011;75163;42.130;21.718;2024-01-30T13:56:22;12.27;;;5.32;;
84899;SDS011;75163;42.130;21.718;2024-01-30T13:58:48;9.43;;;6.32;;
84899;SDS011;75163;42.130;21.718;2024-01-30T14:01:15;12.98;;;7.57;;
84899;SDS011;75163;42.130;21.718;2024-01-30T14:03:41;15.90;;;6.85;;
84899;SDS011;75163;42.130;21.718;2024-01-30T14:06:08;12.20;;;6.13;;
84899;SDS011;75163;42.130;21.718;2024-01-30T14:08:34;11.45;;;6.88;;
84899;SDS011;75163;42.130;21.718;2024-01-30T14:11:00;17.23;;;11.38;;
84899;SDS011;75163;42.130;21.718;2024-01-30T14:13:26;11.95;;;8.40;;
84899;SDS011;75163;42.130;21.718;2024-01-30T14:15:52;10.70;;;6.55;;
84899;SDS011;75163;42.130;21.718;2024-01-30T14:18:19;13.20;;;7.20;;